Time;durP1;ratioP1;P1;durP2;ratioP2;P2;SDS_P1;SDS_P2;PMS_P1;PMS_P2;Temp;Humidity;BMP_temperature;BMP_pressure;BME280_temperature;BME280_humidity;BME280_pressure;Samples;Min_cycle;Max_cycle;Signal;HPM_P1;HPM_P2
2022/08/24 10:29:18;;;;;;;11.10;4.70;;;;;;;40.84;47.81;100604.04;107967;1282;544540;-82
2022/08/24 10:32:55;;;;;;;8.70;5.00;;;;;;;41.38;46.83;100599.93;109993;1259;21989;-81
2022/08/24 10:35:50;;;;;;;10.90;5.50;;;;;;;41.36;47.53;100600.29;110110;1260;23709;-81
2022/08/24 10:42:01;;;;;;;8.70;5.10;;;;;;;41.43;46.78;100602.39;108112;1264;2092143;-81
2022/08/24 10:44:46;;;;;;;7.90;5.70;;;;;;;40.91;46.92;100605.42;109491;1268;21985;-81
2022/08/24 10:47:29;;;;;;;15.60;6.50;;;;;;;40.46;48.94;100603.96;108807;1273;22038;-80
2022/08/24 10:50:42;;;;;;;22.70;6.70;;;;;;;40.16;49.22;100599.66;108639;1276;22004;-78
2022/08/24 10:53:48;;;;;;;10.60;5.80;;;;;;;39.92;51.80;100599.40;108620;1276;21993;-80
2022/08/24 10:56:54;;;;;;;11.00;6.70;;;;;;;39.64;52.09;100595.50;108543;1271;23197;-81
2022/08/24 10:59:45;;;;;;;9.90;6.10;;;;;;;39.42;52.95;100598.27;108595;1279;23654;-81
2022/08/24 11:02:36;;;;;;;12.00;6.30;;;;;;;39.34;53.52;100598.92;108616;1276;23097;-81
2022/08/24 11:05:12;;;;;;;11.80;5.40;;;;;;;39.02;53.77;100598.81;108713;1270;23542;-81
2022/08/24 11:08:06;;;;;;;8.60;4.80;;;;;;;38.72;55.88;100599.08;109525;1265;22038;-81
2022/08/24 11:10:41;;;;;;;9.10;5.40;;;;;;;38.74;56.55;100595.03;109710;1264;22013;-81
2022/08/24 11:13:26;;;;;;;14.30;5.90;;;;;;;38.82;56.70;100591.70;109452;1265;23612;-82
2022/08/24 11:16:02;;;;;;;13.70;5.50;;;;;;;38.76;56.37;100592.97;110190;1259;22024;-83
2022/08/24 11:18:56;;;;;;;;;;;;;;;;;;;;;
2022/08/24 11:21:52;;;;;;;20.80;5.70;;;;;;;38.47;56.45;100598.61;111180;1252;21963;-82
2022/08/24 11:24:45;;;;;;;9.80;4.70;;;;;;;38.10;57.41;100594.98;110893;1252;22401;-81
2022/08/24 11:27:52;;;;;;;8.00;3.80;;;;;;;38.48;57.42;100601.09;111086;1250;22334;-86
2022/08/24 11:30:31;;;;;;;12.20;5.00;;;;;;;38.58;57.41;100600.18;110797;1253;22903;-82
2022/08/24 11:33:53;;;;;;;13.20;4.60;;;;;;;38.55;57.60;100605.08;110780;1251;23773;-82
2022/08/24 11:37:29;;;;;;;9.40;4.60;;;;;;;38.58;58.00;100605.95;110458;1258;22828;-82
2022/08/24 11:41:15;;;;;;;10.70;4.80;;;;;;;38.50;56.95;100607.23;109810;1262;23718;-83
2022/08/24 11:44:31;;;;;;;9.70;5.00;;;;;;;38.34;56.94;100605.95;109666;1264;23091;-82
2022/08/24 11:47:29;;;;;;;12.60;5.30;;;;;;;38.25;57.24;100608.91;109895;1262;22071;-82
2022/08/24 11:50:34;;;;;;;12.60;5.80;;;;;;;38.12;57.70;100608.05;110269;1259;22390;-82
2022/08/24 11:53:43;;;;;;;14.90;6.10;;;;;;;38.09;58.60;100612.46;110124;1261;23065;-84
2022/08/24 11:57:01;;;;;;;12.40;5.30;;;;;;;38.16;59.24;100613.92;109799;1264;22046;-82
2022/08/24 12:00:11;;;;;;;13.30;5.10;;;;;;;38.20;59.23;100613.87;109301;1269;23153;-82
2022/08/24 12:03:06;;;;;;;11.30;5.20;;;;;;;38.59;58.09;100615.11;109047;1270;23247;-83
2022/08/24 12:06:04;;;;;;;12.00;5.90;;;;;;;38.78;57.69;100617.94;109199;1270;22188;-83
2022/08/24 12:09:20;;;;;;;12.40;5.60;;;;;;;38.82;57.70;100620.67;108787;1273;23844;-82
2022/08/24 12:12:20;;;;;;;13.00;5.60;;;;;;;38.68;57.76;100617.12;110118;1259;21978;-84
2022/08/24 12:15:16;;;;;;;11.00;4.80;;;;;;;38.59;58.07;100615.59;110215;1257;22757;-83
2022/08/24 12:18:14;;;;;;;19.20;5.60;;;;;;;38.55;57.50;100610.45;110680;1254;21963;-82
2022/08/24 12:20:48;;;;;;;11.50;6.20;;;;;;;38.53;57.85;100610.55;110658;1254;23034;-82
2022/08/24 12:24:22;;;;;;;10.50;5.70;;;;;;;38.45;57.81;100611.65;109871;1259;21978;-82
2022/08/24 12:30:53;;;;;;;15.00;6.20;;;;;;;38.36;57.25;100612.25;109768;1263;23027;-81
2022/08/24 12:33:38;;;;;;;16.40;6.50;;;;;;;38.23;58.00;100607.27;109804;1259;21930;-81
2022/08/24 12:37:08;;;;;;;17.70;5.70;;;;;;;38.21;58.55;100606.27;110136;1259;21956;-82
2022/08/24 12:40:38;;;;;;;16.80;6.80;;;;;;;38.13;58.78;100610.14;109591;1265;22865;-83
2022/08/24 12:43:43;;;;;;;13.10;6.10;;;;;;;38.11;59.13;100606.85;109301;1266;21998;-83
2022/08/24 12:46:21;;;;;;;14.50;5.30;;;;;;;38.12;59.27;100603.30;109321;1267;23113;-82
2022/08/24 12:49:50;;;;;;;20.50;7.00;;;;;;;38.13;59.10;100602.39;109346;1266;22023;-81
2022/08/24 12:52:52;;;;;;;13.30;5.70;;;;;;;38.16;58.56;100602.86;108805;1272;21992;-82
2022/08/24 12:55:41;;;;;;;11.70;5.70;;;;;;;38.34;58.10;100603.92;108992;1273;22057;-81
2022/08/24 12:58:42;;;;;;;17.80;6.20;;;;;;;38.27;58.81;100606.84;109108;1267;21975;-82
2022/08/24 13:01:43;;;;;;;17.30;6.10;;;;;;;38.04;59.52;100603.39;109473;1259;21989;-83
2022/08/24 13:04:52;;;;;;;15.40;5.70;;;;;;;37.90;60.23;100598.52;109940;1260;21970;-83
2022/08/24 13:08:14;;;;;;;12.60;5.40;;;;;;;37.91;60.58;100595.60;110023;1261;22667;-83
2022/08/24 13:11:29;;;;;;;12.70;5.50;;;;;;;38.16;59.62;100595.89;109705;1265;21979;-82
2022/08/24 13:14:53;;;;;;;;;;;;;;;;;;;;;
2022/08/24 13:17:41;;;;;;;19.10;7.20;;;;;;;38.30;59.22;100596.59;110355;1254;21975;-82
2022/08/24 13:20:28;;;;;;;16.70;6.20;;;;;;;38.10;59.67;100592.94;110673;1254;22302;-82
2022/08/24 13:23:12;;;;;;;15.20;6.00;;;;;;;38.02;59.70;100599.77;110620;1255;23634;-83
2022/08/24 13:25:46;;;;;;;14.40;5.60;;;;;;;37.83;60.68;100606.03;110861;1252;23580;-81
2022/08/24 13:28:46;;;;;;;13.60;5.80;;;;;;;37.77;61.12;100608.20;110840;1250;22102;-84
2022/08/24 13:31:48;;;;;;;12.50;5.70;;;;;;;37.94;61.15;100605.50;110559;1256;22552;-83
2022/08/24 13:34:50;;;;;;;16.10;6.10;;;;;;;37.94;61.20;100603.30;110676;1253;23700;-84
2022/08/24 13:38:19;;;;;;;14.40;5.60;;;;;;;37.81;61.32;100607.38;110710;1255;22251;-84
2022/08/24 13:41:05;;;;;;;17.60;5.90;;;;;;;37.70;61.53;100606.09;110550;1256;21976;-77
2022/08/24 13:44:48;;;;;;;15.70;7.40;;;;;;;37.65;61.92;100604.58;110483;1253;22191;-78
2022/08/24 13:48:18;;;;;;;19.00;7.00;;;;;;;37.81;62.77;100604.23;110618;1253;21954;-77
2022/08/24 13:51:48;;;;;;;13.80;9.30;;;;;;;38.18;61.72;100604.98;110513;1253;23070;-77
2022/08/24 13:54:46;;;;;;;19.70;9.50;;;;;;;38.52;60.16;100606.80;109057;1268;23070;-78
2022/08/24 13:58:08;;;;;;;16.10;5.80;;;;;;;38.38;59.91;100606.63;109040;1267;23830;-79
2022/08/24 14:00:47;;;;;;;17.60;8.80;;;;;;;38.31;60.09;100605.15;109106;1267;23615;-79
2022/08/24 14:04:14;;;;;;;19.40;8.50;;;;;;;38.32;60.75;100607.71;108615;1273;22037;-77
2022/08/24 14:06:56;;;;;;;15.90;8.70;;;;;;;38.48;60.27;100606.69;108037;1281;23614;-78
2022/08/24 14:10:07;;;;;;;14.50;7.20;;;;;;;38.53;59.67;100601.48;108277;1276;22300;-78
2022/08/24 14:13:28;;;;;;;17.60;7.20;;;;;;;38.59;58.91;100597.38;108119;1279;22193;-78
2022/08/24 14:20:05;;;;;;;16.50;6.80;;;;;;;38.61;58.64;100593.33;108395;1276;23715;-79
2022/08/24 14:22:56;;;;;;;21.00;8.20;;;;;;;38.83;58.31;100587.63;108671;1270;22071;-81
2022/08/24 14:26:35;;;;;;;24.00;8.80;;;;;;;38.90;57.83;100579.06;108844;1270;21978;-77
2022/08/24 14:29:38;;;;;;;14.60;7.30;;;;;;;38.86;57.74;100577.71;108694;1269;21993;-77
2022/08/24 14:32:29;;;;;;;19.60;7.70;;;;;;;38.61;58.55;100580.00;109243;1264;21984;-77
2022/08/24 14:35:35;;;;;;;24.00;8.20;;;;;;;38.61;59.25;100581.59;109581;1263;23589;-79
2022/08/24 14:38:21;;;;;;;22.40;7.90;;;;;;;38.63;59.57;100582.59;109165;1267;21988;-77
2022/08/24 14:41:42;;;;;;;17.50;7.30;;;;;;;38.55;59.96;100583.06;109156;1267;23445;-78
2022/08/24 14:44:57;;;;;;;17.80;6.90;;;;;;;38.52;58.64;100581.88;109621;1261;21976;-78
2022/08/24 14:48:20;;;;;;;19.20;7.10;;;;;;;38.28;58.69;100578.56;109699;1259;23069;-77
2022/08/24 14:51:45;;;;;;;20.80;7.80;;;;;;;38.15;58.66;100573.21;110341;1257;23031;-78
2022/08/24 14:54:50;;;;;;;20.20;7.50;;;;;;;37.93;59.61;100568.98;110010;1258;22892;-78
2022/08/24 14:57:50;;;;;;;19.70;7.10;;;;;;;37.88;59.91;100567.83;110170;1259;22188;-77
2022/08/24 15:00:46;;;;;;;18.50;7.40;;;;;;;38.46;57.84;100572.08;109983;1259;23607;-78
2022/08/24 15:04:11;;;;;;;19.50;7.80;;;;;;;38.55;57.15;100570.23;109777;1259;21961;-77
2022/08/24 15:07:28;;;;;;;22.90;8.20;;;;;;;38.53;56.72;100565.04;110526;1254;21979;-79
2022/08/24 15:10:22;;;;;;;18.30;8.00;;;;;;;38.41;57.40;100566.58;110431;1255;21968;-78
2022/08/24 15:13:25;;;;;;;19.80;7.60;;;;;;;38.43;57.93;100574.92;109568;1261;22074;-78
2022/08/24 15:16:36;;;;;;;17.60;7.20;;;;;;;38.44;58.24;100574.86;110182;1255;22034;-78
2022/08/24 15:19:21;;;;;;;20.20;7.80;;;;;;;38.48;58.09;100571.98;110144;1254;21981;-79
2022/08/24 15:22:59;;;;;;;16.10;7.40;;;;;;;38.39;58.10;100565.56;110344;1255;21969;-77
2022/08/24 15:26:18;;;;;;;17.40;7.40;;;;;;;38.17;58.57;100566.83;110453;1255;23820;-78
2022/08/24 15:29:00;;;;;;;24.80;9.40;;;;;;;38.05;59.02;100566.33;110328;1255;21958;-78
2022/08/24 15:32:03;;;;;;;25.40;11.10;;;;;;;37.83;59.93;100568.92;110862;1249;22962;-78
2022/08/24 15:34:57;;;;;;;23.50;7.00;;;;;;;37.70;61.18;100573.23;110561;1252;23029;-77
2022/08/24 15:37:42;;;;;;;24.50;7.70;;;;;;;37.54;61.93;100570.27;110545;1252;21986;-78
2022/08/24 15:40:34;;;;;;;19.40;7.70;;;;;;;37.54;62.00;100573.45;110330;1252;21966;-77
2022/08/24 15:43:16;;;;;;;21.40;8.20;;;;;;;37.54;61.82;100569.11;110380;1255;21979;-79
2022/08/24 15:45:52;;;;;;;;;;;;;;;37.39;62.68;100574.27;110514;1252;22005;-77
2022/08/24 15:48:46;;;;;;;22.20;7.50;;;;;;;37.68;61.93;100579.39;110368;1252;21956;-76
2022/08/24 15:51:43;;;;;;;24.70;7.40;;;;;;;37.67;62.25;100581.33;110012;1257;22755;-78
2022/08/24 15:54:42;;;;;;;19.70;6.60;;;;;;;37.54;62.72;100579.58;110278;1259;21984;-77
2022/08/24 15:57:29;;;;;;;23.10;6.80;;;;;;;37.59;62.55;100580.05;110053;1257;21972;-78
2022/08/24 16:03:23;;;;;;;22.60;7.70;;;;;;;-128.00;-1.00;-1.00;20235;1253;7505256;-77
2022/08/24 16:06:16;;;;;;;24.70;8.20;;;;;;;-29.08;39.86;60352.79;70498;1254;7505734;-77
2022/08/24 16:09:03;;;;;;;29.00;8.00;;;;;;;37.20;64.77;100586.68;110699;1250;21961;-77
2022/08/24 16:11:58;;;;;;;18.80;7.30;;;;;;;37.14;64.50;100586.35;110513;1251;21987;-78
2022/08/24 16:14:47;;;;;;;32.20;9.60;;;;;;;37.03;65.34;100589.17;110643;1254;21949;-79
2022/08/24 16:17:48;;;;;;;22.50;7.50;;;;;;;36.89;66.74;100598.42;110672;1253;22947;-78
2022/08/24 16:20:26;;;;;;;25.10;9.30;;;;;;;36.71;67.38;100602.59;110676;1253;22565;-79
2022/08/24 16:23:50;;;;;;;22.00;7.40;;;;;;;36.67;67.47;100599.16;110714;1252;21978;-77
2022/08/24 16:27:22;;;;;;;20.30;8.40;;;;;;;36.70;67.54;100596.05;110002;1260;25135;-77
2022/08/24 16:30:24;;;;;;;25.60;7.80;;;;;;;36.69;67.96;100594.04;110335;1254;22011;-78
2022/08/24 16:33:34;;;;;;;25.80;8.50;;;;;;;36.59;68.52;100591.70;110595;1255;22637;-77
2022/08/24 16:36:28;;;;;;;20.60;8.00;;;;;;;36.52;69.62;100590.27;110382;1255;22829;-78
2022/08/24 16:39:18;;;;;;;19.60;7.30;;;;;;;36.73;69.02;100593.21;110397;1256;21965;-78
2022/08/24 16:41:58;;;;;;;24.40;12.90;;;;;;;36.76;68.76;100595.69;110453;1254;22050;-78
2022/08/24 16:44:42;;;;;;;23.40;8.30;;;;;;;36.49;70.56;100599.27;110359;1256;21989;-79
2022/08/24 16:47:16;;;;;;;25.90;8.30;;;;;;;36.46;71.48;100602.50;109912;1261;22064;-78
2022/08/24 16:50:02;;;;;;;21.70;7.90;;;;;;;36.51;71.17;100607.52;109956;1260;23671;-78
2022/08/24 16:52:49;;;;;;;28.60;8.60;;;;;;;36.43;71.47;100616.95;109691;1261;22002;-79
2022/08/24 16:55:50;;;;;;;23.80;8.70;;;;;;;36.68;71.33;100621.08;109723;1254;21963;-78
2022/08/24 16:58:54;;;;;;;20.90;9.00;;;;;;;37.02;68.70;100621.79;109963;1258;23097;-78
2022/08/24 17:01:50;;;;;;;22.50;8.90;;;;;;;36.90;69.05;100630.97;110147;1260;21932;-81
2022/08/24 17:05:59;;;;;;;;;;;;;;;;;;;;;
2022/08/24 17:10:21;;;;;;;22.40;9.60;;;;;;;36.43;72.46;100641.55;110260;1273;22244;-82
2022/08/24 17:15:15;;;;;;;;;;;;;;;;;;;;;
2022/08/24 17:18:52;;;;;;;22.20;8.00;;;;;;;36.44;74.05;100649.78;110019;1270;23099;-81
2022/08/24 17:22:39;;;;;;;22.10;10.10;;;;;;;36.48;73.55;100646.47;109356;1276;22110;-81
2022/08/24 17:25:43;;;;;;;27.50;9.20;;;;;;;36.43;73.81;100645.79;109218;1270;23693;-82
2022/08/24 17:29:19;;;;;;;;;;;;;;;;;;;;;
2022/08/24 17:33:03;;;;;;;;;;;;;;;;;;;;;
2022/08/24 17:36:08;;;;;;;;;;;;;;;;;;;;;
2022/08/24 17:39:58;;;;;;;29.10;18.00;;;;;;;36.14;76.83;100630.91;109648;1273;22011;-80
2022/08/24 17:43:13;;;;;;;27.10;17.70;;;;;;;36.12;77.39;100631.48;109068;1273;22010;-82
2022/08/24 17:46:26;;;;;;;;;;;;;;;;;;;;;
2022/08/24 17:49:19;;;;;;;31.90;15.20;;;;;;;36.15;77.17;100641.24;109096;1273;21975;-81
2022/08/24 17:51:56;;;;;;;23.60;12.30;;;;;;;36.08;77.57;100644.28;108925;1269;21995;-82
2022/08/24 17:55:38;;;;;;;;;;;;;;;;;;;;;
2022/08/24 17:59:33;;;;;;;;;;;;;;;;;;;;;
2022/08/24 18:02:39;;;;;;;30.20;15.50;;;;;;;35.94;78.57;100649.81;109385;1267;23045;-80
2022/08/24 18:09:35;;;;;;;;;;;;;;;;;;;;;
2022/08/24 18:13:11;;;;;;;26.90;13.50;;;;;;;35.69;80.86;100667.66;109958;1257;22001;-82
2022/08/24 18:16:42;;;;;;;34.50;14.90;;;;;;;35.74;80.71;100664.95;110375;1257;23686;-80
2022/08/24 18:19:53;;;;;;;35.00;13.60;;;;;;;35.66;81.26;100664.39;110648;1254;21974;-79
2022/08/24 18:22:46;;;;;;;28.50;16.30;;;;;;;35.59;81.91;100661.20;110148;1257;22890;-80
2022/08/24 18:26:57;;;;;;;;;;;;;;;;;;;;;
2022/08/24 18:30:19;;;;;;;27.70;18.70;;;;;;;35.37;83.21;100666.38;110580;1265;22134;-79
2022/08/24 18:33:20;;;;;;;;;;;;;;;;;;;;;
2022/08/24 18:36:11;;;;;;;33.70;21.80;;;;;;;35.54;82.90;100670.54;109574;1265;22077;-80
2022/08/24 18:39:08;;;;;;;28.60;14.10;;;;;;;35.41;84.17;100668.98;109111;1273;21987;-79
2022/08/24 18:42:37;;;;;;;;;;;;;;;;;;;;;
2022/08/24 18:46:26;;;;;;;;;;;;;;;35.21;86.15;100676.11;109445;1267;21964;-80
2022/08/24 18:49:49;;;;;;;22.70;13.00;;;;;;;35.07;86.92;100669.70;109223;1267;22014;-80
2022/08/24 18:52:38;;;;;;;30.70;15.20;;;;;;;35.06;87.76;100667.69;109386;1270;23766;-81
2022/08/24 18:55:42;;;;;;;;;;;;;;;;;;;;;
2022/08/24 18:59:03;;;;;;;32.70;18.90;;;;;;;34.99;88.28;100664.27;109918;1262;22690;-82
2022/08/24 19:05:42;;;;;;;37.70;27.10;;;;;;;34.70;91.47;100666.40;109822;1260;21977;-81
2022/08/24 19:08:59;;;;;;;;;;;;;;;;;;;;;
2022/08/24 19:12:06;;;;;;;34.20;23.40;;;;;;;35.19;87.82;100668.91;109715;1260;21977;-82
2022/08/24 19:15:30;;;;;;;30.30;17.90;;;;;;;35.18;87.41;100676.70;109260;1267;23109;-82
2022/08/24 19:18:41;;;;;;;28.40;14.60;;;;;;;35.12;87.44;100672.09;109420;1267;22068;-81
2022/08/24 19:21:53;;;;;;;29.90;15.20;;;;;;;35.07;87.48;100673.63;109152;1270;22009;-81
2022/08/24 19:24:57;;;;;;;27.10;13.20;;;;;;;34.84;89.18;100673.82;109455;1267;24287;-81
2022/08/24 19:28:01;;;;;;;;;;;;;;;;;;;;;
2022/08/24 19:30:45;;;;;;;33.60;26.80;;;;;;;34.85;89.32;100673.80;110167;1260;21991;-81
2022/08/24 19:34:20;;;;;;;;;;;;;;;;;;;;;
2022/08/24 19:37:54;;;;;;;;;;;;;;;;;;;;;
2022/08/24 19:41:19;;;;;;;36.20;19.20;;;;;;;34.76;89.76;100677.88;108877;1273;21994;-82
2022/08/24 19:48:08;;;;;;;30.00;15.70;;;;;;;34.55;91.36;100690.55;109479;1264;22083;-80
2022/08/24 19:51:25;;;;;;;25.20;15.20;;;;;;;34.57;91.51;100693.45;109659;1263;23700;-82
2022/08/24 19:54:48;;;;;;;32.40;15.70;;;;;;;34.61;91.70;100693.57;109477;1258;22286;-81
2022/08/24 19:58:05;;;;;;;;;;;;;;;;;;;;;
2022/08/24 20:01:38;;;;;;;;;;;;;;;;;;;;;
2022/08/24 20:05:17;;;;;;;;;;;;;;;;;;;;;
2022/08/24 20:08:22;;;;;;;35.10;19.20;;;;;;;34.28;94.87;100688.99;109243;1267;22118;-80
2022/08/24 20:11:12;;;;;;;28.80;22.50;;;;;;;34.19;95.99;100689.37;109192;1267;22030;-79
2022/08/24 20:14:50;;;;;;;;;;;;;;;;;;;;;
2022/08/24 20:18:06;;;;;;;34.10;21.50;;;;;;;34.32;94.77;100688.81;109066;1267;22071;-81
2022/08/24 20:21:41;;;;;;;39.40;22.10;;;;;;;34.24;95.62;100684.21;109170;1267;22023;-80
2022/08/24 20:24:56;;;;;;;;;;;;;;;;;;;;;
2022/08/24 20:27:57;;;;;;;36.00;21.80;;;;;;;33.90;98.82;100677.98;109010;1273;22562;-81
2022/08/24 20:31:37;;;;;;;30.30;20.70;;;;;;;33.88;99.29;100677.50;108941;1270;22102;-79
2022/08/24 20:35:31;;;;;;;30.40;21.10;;;;;;;33.85;98.53;100677.73;109413;1267;22702;-81
2022/08/24 20:39:12;;;;;;;;;;;;;;;;;;;;;
2022/08/24 20:42:49;;;;;;;39.80;21.30;;;;;;;33.86;98.56;100671.47;108985;1273;22061;-80
2022/08/24 20:46:45;;;;;;;32.90;22.00;;;;;;;34.17;96.19;100668.80;108765;1276;23846;-80
2022/08/24 20:50:32;;;;;;;33.70;22.80;;;;;;;34.19;95.12;100669.16;109148;1270;21992;-81
2022/08/24 20:53:19;;;;;;;31.80;22.00;;;;;;;34.12;95.65;100669.45;109145;1270;23688;-81
2022/08/24 20:57:19;;;;;;;30.30;23.80;;;;;;;34.03;96.60;100666.13;109114;1270;22932;-80
2022/08/24 21:04:25;;;;;;;32.80;22.30;;;;;;;33.81;97.36;100660.58;109045;1273;21992;-81
2022/08/24 21:07:46;;;;;;;30.80;21.90;;;;;;;33.82;97.58;100659.26;108929;1273;21982;-82
2022/08/24 21:11:05;;;;;;;29.70;24.00;;;;;;;33.88;97.54;100654.58;108696;1275;22079;-80
2022/08/24 21:14:28;;;;;;;33.50;25.10;;;;;;;33.99;97.07;100656.74;108703;1276;22051;-81
2022/08/24 21:17:32;;;;;;;34.30;24.20;;;;;;;33.95;97.29;100657.11;109016;1274;23837;-81
2022/08/24 21:20:08;;;;;;;31.30;22.20;;;;;;;34.01;96.09;100657.19;108628;1276;22011;-83
2022/08/24 21:22:55;;;;;;;32.60;21.70;;;;;;;33.98;96.22;100653.48;108623;1276;22377;-81
2022/08/24 21:26:29;;;;;;;36.70;22.00;;;;;;;33.90;96.67;100655.23;108669;1273;22275;-81
2022/08/24 21:29:09;;;;;;;30.60;20.50;;;;;;;33.89;96.63;100649.06;108375;1277;23066;-81
2022/08/24 21:35:46;;;;;;;30.30;20.00;;;;;;;34.11;93.47;100652.35;108654;1270;22664;-82
2022/08/24 21:38:34;;;;;;;33.00;20.00;;;;;;;34.09;93.08;100653.64;108864;1268;22444;-81
2022/08/24 21:41:19;;;;;;;32.50;19.60;;;;;;;33.73;95.34;100651.10;108963;1267;22000;-80
2022/08/24 21:43:52;;;;;;;32.90;20.00;;;;;;;33.55;97.93;100653.65;108978;1263;21987;-79
2022/08/24 21:46:43;;;;;;;34.20;20.00;;;;;;;33.62;97.97;100652.11;110051;1259;24496;-81
2022/08/24 21:49:36;;;;;;;36.00;20.60;;;;;;;33.58;97.73;100655.61;109928;1259;23727;-79
2022/08/24 21:53:30;;;;;;;32.50;19.90;;;;;;;33.42;98.85;100655.90;109619;1262;22036;-80
2022/08/24 22:07:31;;;;;;;29.70;16.30;;;;;;;33.90;97.21;100655.30;108109;1279;549765;-80
2022/08/24 22:10:24;;;;;;;29.80;16.50;;;;;;;34.09;92.32;100649.19;108557;1260;1416278;-80
2022/08/24 22:13:15;;;;;;;28.90;17.50;;;;;;;34.06;92.20;100646.20;109624;1260;22051;-81
2022/08/24 22:16:43;;;;;;;26.00;15.30;;;;;;;34.01;91.87;100649.48;109850;1260;23674;-80
2022/08/24 22:19:15;;;;;;;28.40;15.80;;;;;;;33.81;93.15;100647.55;109391;1267;22165;-80
2022/08/24 22:22:08;;;;;;;30.30;16.30;;;;;;;33.65;95.27;100641.08;109400;1267;23749;-80
2022/08/24 22:25:33;;;;;;;;;;;;;;;;;;;;;
2022/08/24 22:28:12;;;;;;;27.30;16.60;;;;;;;33.51;96.37;100638.02;109052;1271;22127;-79
2022/08/24 22:30:55;;;;;;;31.20;17.00;;;;;;;33.32;98.99;100634.21;108774;1271;24203;-80
2022/08/24 22:33:43;;;;;;;28.90;17.70;;;;;;;33.36;98.34;100633.11;108764;1271;23090;-79
2022/08/24 22:36:28;;;;;;;28.40;16.10;;;;;;;33.44;98.32;100629.41;108338;1279;22237;-81
2022/08/24 22:39:50;;;;;;;33.90;17.90;;;;;;;33.58;97.71;100625.92;108528;1279;22127;-80
2022/08/24 22:43:23;;;;;;;;;;;;;;;;;;;;;
2022/08/24 22:46:11;;;;;;;24.30;18.20;;;;;;;33.60;95.87;100622.69;108631;1273;23804;-80
2022/08/24 22:48:56;;;;;;;27.90;16.40;;;;;;;33.53;96.91;100621.40;108969;1273;22048;-80
2022/08/24 22:51:43;;;;;;;29.10;17.70;;;;;;;33.53;97.46;100616.09;108935;1271;23304;-80
2022/08/24 22:54:29;;;;;;;23.20;16.90;;;;;;;33.50;98.09;100609.42;108656;1271;22986;-80
2022/08/24 22:57:06;;;;;;;26.90;16.60;;;;;;;33.66;96.63;100610.67;109400;1263;21990;-81
2022/08/24 22:59:55;;;;;;;30.30;17.30;;;;;;;33.97;93.43;100614.70;110078;1254;21985;-82
2022/08/24 23:02:37;;;;;;;25.60;16.50;;;;;;;33.75;94.22;100615.11;110723;1254;24025;-82
2022/08/24 23:05:32;;;;;;;26.20;16.60;;;;;;;33.52;95.54;100615.45;110340;1254;21990;-80
2022/08/24 23:08:38;;;;;;;27.60;16.20;;;;;;;33.43;96.26;100611.07;110417;1254;21964;-80
2022/08/24 23:11:25;;;;;;;32.10;18.00;;;;;;;33.35;96.24;100611.84;109965;1258;24382;-79
2022/08/24 23:14:01;;;;;;;26.30;16.60;;;;;;;33.30;96.91;100609.08;110746;1254;23125;-82
2022/08/24 23:16:50;;;;;;;29.70;16.30;;;;;;;33.20;97.65;100610.02;110666;1253;21976;-80
2022/08/24 23:20:06;;;;;;;20.90;14.60;;;;;;;33.33;96.42;100603.53;110795;1251;22023;-82
2022/08/24 23:22:42;;;;;;;25.40;14.10;;;;;;;33.44;94.69;100594.63;110622;1251;21963;-80
2022/08/24 23:25:24;;;;;;;31.90;15.50;;;;;;;33.45;94.72;100596.30;110604;1251;23096;-81
2022/08/24 23:28:01;;;;;;;23.40;14.70;;;;;;;33.46;94.46;100603.58;110727;1251;21973;-81
2022/08/24 23:30:41;;;;;;;27.00;14.80;;;;;;;33.58;92.80;100601.29;110498;1254;23045;-79
2022/08/24 23:33:14;;;;;;;25.70;15.10;;;;;;;33.65;92.02;100601.18;110469;1251;22064;-79
2022/08/24 23:35:51;;;;;;;28.00;15.70;;;;;;;33.50;93.19;100609.27;110536;1250;21979;-80
2022/08/24 23:38:33;;;;;;;20.30;13.40;;;;;;;33.40;93.62;100610.47;110702;1250;21992;-80
2022/08/24 23:41:12;;;;;;;21.90;13.80;;;;;;;33.52;91.94;100606.55;110799;1250;21964;-80
2022/08/24 23:44:10;;;;;;;25.80;15.70;;;;;;;33.14;94.00;100598.14;110762;1250;21957;-79
2022/08/24 23:47:02;;;;;;;30.10;14.10;;;;;;;32.58;98.22;100595.56;110881;1250;23055;-80
2022/08/24 23:49:41;;;;;;;23.20;12.90;;;;;;;32.33;99.94;100594.73;110858;1249;22019;-81
2022/08/24 23:52:36;;;;;;;22.60;13.20;;;;;;;32.31;99.93;100596.70;110810;1250;22254;-81
2022/08/24 23:55:15;;;;;;;24.20;13.00;;;;;;;32.19;99.96;100600.46;111020;1250;22972;-81
2022/08/24 23:58:16;;;;;;;25.70;13.50;;;;;;;32.10;100.00;100597.98;110081;1256;23096;-80
